sensor_id;sensor_type;location;lat;lon;timestamp;temperature;humidity
22426;DHT22;11380;50.822;15.790;2023-07-20T00:02:00;15.80;99.90
22426;DHT22;11380;50.822;15.790;2023-07-20T00:07:08;16.10;75.80
22426;DHT22;11380;50.822;15.790;2023-07-20T00:12:15;15.90;59.40
22426;DHT22;11380;50.822;15.790;2023-07-20T00:17:22;16.00;28.10
22426;DHT22;11380;50.822;15.790;2023-07-20T00:22:29;15.50;76.20
22426;DHT22;11380;50.822;15.790;2023-07-20T00:27:36;15.20;99.90
22426;DHT22;11380;50.822;15.790;2023-07-20T00:32:43;15.00;99.90
22426;DHT22;11380;50.822;15.790;2023-07-20T00:37:50;14.90;99.90
22426;DHT22;11380;50.822;15.790;2023-07-20T00:42:58;15.20;99.90
22426;DHT22;11380;50.822;15.790;2023-07-20T00:48:07;15.30;99.90
22426;DHT22;11380;50.822;15.790;2023-07-20T00:53:15;15.60;99.90
22426;DHT22;11380;50.822;15.790;2023-07-20T00:58:22;15.30;99.90
22426;DHT22;11380;50.822;15.790;2023-07-20T01:03:29;15.50;99.90
22426;DHT22;11380;50.822;15.790;2023-07-20T01:08:57;15.50;92.30
22426;DHT22;11380;50.822;15.790;2023-07-20T01:14:14;15.20;83.80
22426;DHT22;11380;50.822;15.790;2023-07-20T01:19:22;15.50;99.90
22426;DHT22;11380;50.822;15.790;2023-07-20T01:24:52;15.20;99.90
22426;DHT22;11380;50.822;15.790;2023-07-20T01:30:25;14.80;99.90
22426;DHT22;11380;50.822;15.790;2023-07-20T01:35:52;14.70;99.90
22426;DHT22;11380;50.822;15.790;2023-07-20T01:41:02;14.70;99.90
22426;DHT22;11380;50.822;15.790;2023-07-20T01:46:09;14.80;99.90
22426;DHT22;11380;50.822;15.790;2023-07-20T01:51:17;15.10;99.90
22426;DHT22;11380;50.822;15.790;2023-07-20T01:56:25;14.90;99.90
22426;DHT22;11380;50.822;15.790;2023-07-20T02:01:31;15.00;99.90
22426;DHT22;11380;50.822;15.790;2023-07-20T02:06:38;15.00;99.90
22426;DHT22;11380;50.822;15.790;2023-07-20T02:11:46;14.80;99.90
22426;DHT22;11380;50.822;15.790;2023-07-20T02:16:53;14.90;99.90
22426;DHT22;11380;50.822;15.790;2023-07-20T02:22:01;14.90;99.90
22426;DHT22;11380;50.822;15.790;2023-07-20T02:27:09;14.80;99.90
22426;DHT22;11380;50.822;15.790;2023-07-20T02:32:16;14.80;99.90
22426;DHT22;11380;50.822;15.790;2023-07-20T02:37:23;15.00;99.90
22426;DHT22;11380;50.822;15.790;2023-07-20T02:42:31;15.00;99.90
22426;DHT22;11380;50.822;15.790;2023-07-20T02:47:39;15.10;99.90
22426;DHT22;11380;50.822;15.790;2023-07-20T02:52:46;15.00;99.90
22426;DHT22;11380;50.822;15.790;2023-07-20T02:57:53;15.30;99.00
22426;DHT22;11380;50.822;15.790;2023-07-20T03:03:00;15.20;99.90
22426;DHT22;11380;50.822;15.790;2023-07-20T03:08:08;15.30;99.90
22426;DHT22;11380;50.822;15.790;2023-07-20T03:13:16;15.60;99.90
22426;DHT22;11380;50.822;15.790;2023-07-20T03:18:23;15.50;99.90
22426;DHT22;11380;50.822;15.790;2023-07-20T03:23:31;15.30;99.90
22426;DHT22;11380;50.822;15.790;2023-07-20T03:28:40;15.50;99.90
22426;DHT22;11380;50.822;15.790;2023-07-20T03:33:48;15.40;99.90
22426;DHT22;11380;50.822;15.790;2023-07-20T03:38:55;15.50;99.90
22426;DHT22;11380;50.822;15.790;2023-07-20T03:44:01;15.30;99.90
22426;DHT22;11380;50.822;15.790;2023-07-20T03:49:09;15.40;99.90
22426;DHT22;11380;50.822;15.790;2023-07-20T03:54:15;15.50;99.90
22426;DHT22;11380;50.822;15.790;2023-07-20T03:59:23;15.10;99.90
22426;DHT22;11380;50.822;15.790;2023-07-20T04:04:30;15.20;99.90
22426;DHT22;11380;50.822;15.790;2023-07-20T04:09:39;15.40;99.90
22426;DHT22;11380;50.822;15.790;2023-07-20T04:14:47;15.50;99.90
22426;DHT22;11380;50.822;15.790;2023-07-20T04:19:54;15.30;99.90
22426;DHT22;11380;50.822;15.790;2023-07-20T04:25:02;15.40;99.90
22426;DHT22;11380;50.822;15.790;2023-07-20T04:30:11;15.60;99.90
22426;DHT22;11380;50.822;15.790;2023-07-20T04:40:53;16.20;99.90
22426;DHT22;11380;50.822;15.790;2023-07-20T04:46:00;16.20;99.90
22426;DHT22;11380;50.822;15.790;2023-07-20T05:03:58;16.70;99.90
22426;DHT22;11380;50.822;15.790;2023-07-20T05:09:06;17.20;99.90
22426;DHT22;11380;50.822;15.790;2023-07-20T05:14:14;17.30;99.90
22426;DHT22;11380;50.822;15.790;2023-07-20T05:19:22;17.00;99.90
22426;DHT22;11380;50.822;15.790;2023-07-20T05:24:31;16.90;99.90
22426;DHT22;11380;50.822;15.790;2023-07-20T05:29:44;17.00;99.90
22426;DHT22;11380;50.822;15.790;2023-07-20T05:34:53;17.10;93.90
22426;DHT22;11380;50.822;15.790;2023-07-20T05:40:00;17.10;95.20
22426;DHT22;11380;50.822;15.790;2023-07-20T05:45:08;17.00;99.90
22426;DHT22;11380;50.822;15.790;2023-07-20T05:50:16;17.10;26.90
22426;DHT22;11380;50.822;15.790;2023-07-20T05:55:23;17.20;7.30
22426;DHT22;11380;50.822;15.790;2023-07-20T06:00:30;17.50;1.00
22426;DHT22;11380;50.822;15.790;2023-07-20T06:05:37;17.70;1.00
22426;DHT22;11380;50.822;15.790;2023-07-20T06:10:43;17.60;1.00
22426;DHT22;11380;50.822;15.790;2023-07-20T06:15:51;17.30;1.00
22426;DHT22;11380;50.822;15.790;2023-07-20T06:20:59;16.90;1.00
22426;DHT22;11380;50.822;15.790;2023-07-20T06:26:06;17.30;1.00
22426;DHT22;11380;50.822;15.790;2023-07-20T06:31:14;17.40;1.00
22426;DHT22;11380;50.822;15.790;2023-07-20T06:36:22;17.10;1.00
22426;DHT22;11380;50.822;15.790;2023-07-20T06:41:31;17.30;1.00
22426;DHT22;11380;50.822;15.790;2023-07-20T06:46:40;17.50;1.00
22426;DHT22;11380;50.822;15.790;2023-07-20T06:51:47;17.60;1.00
22426;DHT22;11380;50.822;15.790;2023-07-20T06:56:54;17.50;1.00
22426;DHT22;11380;50.822;15.790;2023-07-20T07:02:03;17.90;1.00
22426;DHT22;11380;50.822;15.790;2023-07-20T07:07:10;17.80;1.00
22426;DHT22;11380;50.822;15.790;2023-07-20T07:12:18;17.90;1.00
22426;DHT22;11380;50.822;15.790;2023-07-20T07:17:25;17.70;1.00
22426;DHT22;11380;50.822;15.790;2023-07-20T07:22:34;17.50;1.00
22426;DHT22;11380;50.822;15.790;2023-07-20T07:27:41;17.70;1.00
22426;DHT22;11380;50.822;15.790;2023-07-20T07:32:48;17.80;1.00
22426;DHT22;11380;50.822;15.790;2023-07-20T07:37:55;17.90;1.00
22426;DHT22;11380;50.822;15.790;2023-07-20T07:43:04;17.90;1.00
22426;DHT22;11380;50.822;15.790;2023-07-20T07:48:11;18.10;1.00
22426;DHT22;11380;50.822;15.790;2023-07-20T07:53:19;17.90;1.00
22426;DHT22;11380;50.822;15.790;2023-07-20T07:58:27;18.50;1.00
22426;DHT22;11380;50.822;15.790;2023-07-20T08:10:07;18.80;1.00
22426;DHT22;11380;50.822;15.790;2023-07-20T08:15:14;18.50;1.00
22426;DHT22;11380;50.822;15.790;2023-07-20T08:20:22;18.90;1.00
22426;DHT22;11380;50.822;15.790;2023-07-20T08:25:30;18.90;1.00
22426;DHT22;11380;50.822;15.790;2023-07-20T08:30:43;19.00;1.00
22426;DHT22;11380;50.822;15.790;2023-07-20T08:35:50;19.60;1.00
22426;DHT22;11380;50.822;15.790;2023-07-20T08:40:59;20.00;1.00
22426;DHT22;11380;50.822;15.790;2023-07-20T08:46:08;20.40;1.00
22426;DHT22;11380;50.822;15.790;2023-07-20T08:51:17;20.90;1.00
22426;DHT22;11380;50.822;15.790;2023-07-20T08:56:28;21.50;1.00
22426;DHT22;11380;50.822;15.790;2023-07-20T09:01:38;21.40;1.00
22426;DHT22;11380;50.822;15.790;2023-07-20T09:06:45;20.90;1.00
22426;DHT22;11380;50.822;15.790;2023-07-20T09:11:55;20.80;1.00
22426;DHT22;11380;50.822;15.790;2023-07-20T09:17:02;20.80;1.00
22426;DHT22;11380;50.822;15.790;2023-07-20T09:22:09;20.70;1.00
22426;DHT22;11380;50.822;15.790;2023-07-20T09:27:17;21.90;1.00
22426;DHT22;11380;50.822;15.790;2023-07-20T09:32:24;22.10;1.00
22426;DHT22;11380;50.822;15.790;2023-07-20T09:37:33;20.60;1.00
22426;DHT22;11380;50.822;15.790;2023-07-20T09:42:40;19.90;1.00
22426;DHT22;11380;50.822;15.790;2023-07-20T09:47:49;20.00;99.90
22426;DHT22;11380;50.822;15.790;2023-07-20T09:53:01;20.30;99.90
22426;DHT22;11380;50.822;15.790;2023-07-20T09:58:11;20.40;99.90
22426;DHT22;11380;50.822;15.790;2023-07-20T10:03:22;18.50;1.00
22426;DHT22;11380;50.822;15.790;2023-07-20T10:08:35;17.10;1.00
22426;DHT22;11380;50.822;15.790;2023-07-20T10:13:53;16.90;1.00
22426;DHT22;11380;50.822;15.790;2023-07-20T10:19:05;17.00;1.00
22426;DHT22;11380;50.822;15.790;2023-07-20T10:24:18;17.20;14.50
22426;DHT22;11380;50.822;15.790;2023-07-20T10:29:26;17.40;1.00
22426;DHT22;11380;50.822;15.790;2023-07-20T10:34:34;18.00;1.00
22426;DHT22;11380;50.822;15.790;2023-07-20T10:39:43;18.20;1.00
22426;DHT22;11380;50.822;15.790;2023-07-20T10:44:51;18.10;1.00
22426;DHT22;11380;50.822;15.790;2023-07-20T10:49:59;18.50;1.00
22426;DHT22;11380;50.822;15.790;2023-07-20T10:55:15;18.50;1.00
22426;DHT22;11380;50.822;15.790;2023-07-20T11:00:24;18.60;1.00
22426;DHT22;11380;50.822;15.790;2023-07-20T11:05:36;18.90;1.00
22426;DHT22;11380;50.822;15.790;2023-07-20T11:10:45;19.70;99.90
22426;DHT22;11380;50.822;15.790;2023-07-20T11:21:12;20.20;99.90
22426;DHT22;11380;50.822;15.790;2023-07-20T11:26:19;20.40;99.90
22426;DHT22;11380;50.822;15.790;2023-07-20T11:31:26;20.10;99.90
22426;DHT22;11380;50.822;15.790;2023-07-20T11:36:33;20.30;99.90
22426;DHT22;11380;50.822;15.790;2023-07-20T11:41:49;20.90;99.90
22426;DHT22;11380;50.822;15.790;2023-07-20T11:47:02;21.30;99.90
22426;DHT22;11380;50.822;15.790;2023-07-20T11:52:17;21.70;99.90
22426;DHT22;11380;50.822;15.790;2023-07-20T11:57:24;22.40;70.10
22426;DHT22;11380;50.822;15.790;2023-07-20T12:02:33;22.60;1.00
22426;DHT22;11380;50.822;15.790;2023-07-20T12:07:40;22.20;99.90
22426;DHT22;11380;50.822;15.790;2023-07-20T12:12:48;21.60;99.90
22426;DHT22;11380;50.822;15.790;2023-07-20T12:17:57;22.30;1.00
22426;DHT22;11380;50.822;15.790;2023-07-20T12:23:10;22.90;1.00
22426;DHT22;11380;50.822;15.790;2023-07-20T12:28:19;22.80;1.00
22426;DHT22;11380;50.822;15.790;2023-07-20T12:33:26;21.90;1.00
22426;DHT22;11380;50.822;15.790;2023-07-20T12:38:35;21.00;1.00
22426;DHT22;11380;50.822;15.790;2023-07-20T12:43:45;19.70;99.90
22426;DHT22;11380;50.822;15.790;2023-07-20T12:48:52;19.40;1.00
22426;DHT22;11380;50.822;15.790;2023-07-20T12:53:59;18.80;99.90
22426;DHT22;11380;50.822;15.790;2023-07-20T12:59:06;18.80;99.90
22426;DHT22;11380;50.822;15.790;2023-07-20T13:04:13;19.30;99.90
22426;DHT22;11380;50.822;15.790;2023-07-20T13:09:21;19.20;99.90
22426;DHT22;11380;50.822;15.790;2023-07-20T13:14:29;19.30;99.90
22426;DHT22;11380;50.822;15.790;2023-07-20T13:19:36;19.70;99.90
22426;DHT22;11380;50.822;15.790;2023-07-20T13:24:45;20.90;99.90
22426;DHT22;11380;50.822;15.790;2023-07-20T13:29:54;21.30;42.00
22426;DHT22;11380;50.822;15.790;2023-07-20T13:35:02;20.60;1.60
22426;DHT22;11380;50.822;15.790;2023-07-20T13:40:09;20.40;1.00
22426;DHT22;11380;50.822;15.790;2023-07-20T13:45:18;20.90;1.00
22426;DHT22;11380;50.822;15.790;2023-07-20T13:50:25;21.50;1.00
22426;DHT22;11380;50.822;15.790;2023-07-20T13:55:35;21.70;1.00
22426;DHT22;11380;50.822;15.790;2023-07-20T14:00:44;21.60;1.00
22426;DHT22;11380;50.822;15.790;2023-07-20T14:05:51;22.00;1.00
22426;DHT22;11380;50.822;15.790;2023-07-20T14:11:00;22.30;1.00
22426;DHT22;11380;50.822;15.790;2023-07-20T14:16:09;22.80;99.90
22426;DHT22;11380;50.822;15.790;2023-07-20T14:21:19;22.90;1.00
22426;DHT22;11380;50.822;15.790;2023-07-20T14:26:26;22.80;1.00
22426;DHT22;11380;50.822;15.790;2023-07-20T14:31:34;22.60;1.00
22426;DHT22;11380;50.822;15.790;2023-07-20T14:36:42;22.70;1.00
22426;DHT22;11380;50.822;15.790;2023-07-20T14:41:49;22.70;99.90
22426;DHT22;11380;50.822;15.790;2023-07-20T14:46:57;22.40;99.90
22426;DHT22;11380;50.822;15.790;2023-07-20T14:52:06;22.50;99.90
22426;DHT22;11380;50.822;15.790;2023-07-20T14:57:15;22.50;99.90
22426;DHT22;11380;50.822;15.790;2023-07-20T15:02:22;22.80;99.90
22426;DHT22;11380;50.822;15.790;2023-07-20T15:07:30;22.50;99.90
22426;DHT22;11380;50.822;15.790;2023-07-20T15:12:37;21.90;99.90
22426;DHT22;11380;50.822;15.790;2023-07-20T15:17:44;21.50;99.90
22426;DHT22;11380;50.822;15.790;2023-07-20T15:22:52;21.50;99.90
22426;DHT22;11380;50.822;15.790;2023-07-20T15:27:59;21.60;1.00
22426;DHT22;11380;50.822;15.790;2023-07-20T15:33:06;21.20;1.00
22426;DHT22;11380;50.822;15.790;2023-07-20T15:38:15;21.10;1.00
22426;DHT22;11380;50.822;15.790;2023-07-20T15:43:22;20.90;1.00
22426;DHT22;11380;50.822;15.790;2023-07-20T15:48:29;20.60;1.00
22426;DHT22;11380;50.822;15.790;2023-07-20T15:53:36;20.50;1.00
22426;DHT22;11380;50.822;15.790;2023-07-20T15:58:43;20.40;1.00
22426;DHT22;11380;50.822;15.790;2023-07-20T16:03:52;20.50;1.00
22426;DHT22;11380;50.822;15.790;2023-07-20T16:08:59;20.70;1.00
22426;DHT22;11380;50.822;15.790;2023-07-20T16:14:07;20.90;1.00
22426;DHT22;11380;50.822;15.790;2023-07-20T16:19:15;20.60;1.00
22426;DHT22;11380;50.822;15.790;2023-07-20T16:24:23;21.00;1.00
22426;DHT22;11380;50.822;15.790;2023-07-20T16:29:31;20.40;1.00
22426;DHT22;11380;50.822;15.790;2023-07-20T16:34:40;20.50;1.00
22426;DHT22;11380;50.822;15.790;2023-07-20T16:39:52;20.50;2.50
22426;DHT22;11380;50.822;15.790;2023-07-20T16:45:01;20.40;8.70
22426;DHT22;11380;50.822;15.790;2023-07-20T16:50:09;20.20;1.00
22426;DHT22;11380;50.822;15.790;2023-07-20T16:55:16;20.40;1.00
22426;DHT22;11380;50.822;15.790;2023-07-20T17:00:24;20.20;1.00
22426;DHT22;11380;50.822;15.790;2023-07-20T17:05:31;20.00;1.00
22426;DHT22;11380;50.822;15.790;2023-07-20T17:10:39;19.80;99.90
22426;DHT22;11380;50.822;15.790;2023-07-20T17:15:47;19.80;1.00
22426;DHT22;11380;50.822;15.790;2023-07-20T17:20:55;19.90;1.00
22426;DHT22;11380;50.822;15.790;2023-07-20T17:26:03;19.80;1.00
22426;DHT22;11380;50.822;15.790;2023-07-20T17:31:11;19.70;99.90
22426;DHT22;11380;50.822;15.790;2023-07-20T17:36:18;19.60;1.00
22426;DHT22;11380;50.822;15.790;2023-07-20T17:41:28;19.60;1.00
22426;DHT22;11380;50.822;15.790;2023-07-20T17:46:37;19.70;99.90
22426;DHT22;11380;50.822;15.790;2023-07-20T17:51:46;19.50;99.90
22426;DHT22;11380;50.822;15.790;2023-07-20T17:56:54;19.30;99.90
22426;DHT22;11380;50.822;15.790;2023-07-20T18:02:01;19.30;1.00
22426;DHT22;11380;50.822;15.790;2023-07-20T18:07:09;19.40;1.00
22426;DHT22;11380;50.822;15.790;2023-07-20T18:12:16;19.40;1.00
22426;DHT22;11380;50.822;15.790;2023-07-20T18:17:23;19.30;1.00
22426;DHT22;11380;50.822;15.790;2023-07-20T18:22:32;19.00;1.00
22426;DHT22;11380;50.822;15.790;2023-07-20T18:27:40;18.90;1.00
22426;DHT22;11380;50.822;15.790;2023-07-20T18:32:46;18.90;1.00
22426;DHT22;11380;50.822;15.790;2023-07-20T18:37:53;18.80;1.00
22426;DHT22;11380;50.822;15.790;2023-07-20T18:43:00;18.80;1.00
22426;DHT22;11380;50.822;15.790;2023-07-20T18:48:08;18.80;1.00
22426;DHT22;11380;50.822;15.790;2023-07-20T18:53:17;18.60;99.90
22426;DHT22;11380;50.822;15.790;2023-07-20T18:58:25;18.50;99.90
22426;DHT22;11380;50.822;15.790;2023-07-20T19:03:32;18.40;1.00
22426;DHT22;11380;50.822;15.790;2023-07-20T19:08:40;18.20;1.00
22426;DHT22;11380;50.822;15.790;2023-07-20T19:13:46;18.00;99.90
22426;DHT22;11380;50.822;15.790;2023-07-20T19:18:55;17.70;1.00
22426;DHT22;11380;50.822;15.790;2023-07-20T19:24:03;17.70;1.00
22426;DHT22;11380;50.822;15.790;2023-07-20T19:29:11;17.70;1.00
22426;DHT22;11380;50.822;15.790;2023-07-20T19:34:18;17.50;1.00
22426;DHT22;11380;50.822;15.790;2023-07-20T19:39:25;17.50;1.00
22426;DHT22;11380;50.822;15.790;2023-07-20T19:44:32;17.10;1.00
22426;DHT22;11380;50.822;15.790;2023-07-20T19:49:40;17.30;1.00
22426;DHT22;11380;50.822;15.790;2023-07-20T19:54:47;16.80;1.00
22426;DHT22;11380;50.822;15.790;2023-07-20T19:59:54;16.80;1.00
22426;DHT22;11380;50.822;15.790;2023-07-20T20:05:02;16.60;1.00
22426;DHT22;11380;50.822;15.790;2023-07-20T20:10:10;16.50;1.00
22426;DHT22;11380;50.822;15.790;2023-07-20T20:15:17;16.50;1.00
22426;DHT22;11380;50.822;15.790;2023-07-20T20:20:30;16.50;1.00
22426;DHT22;11380;50.822;15.790;2023-07-20T20:25:34;16.40;1.00
22426;DHT22;11380;50.822;15.790;2023-07-20T20:30:41;16.30;1.00
22426;DHT22;11380;50.822;15.790;2023-07-20T20:35:50;16.20;1.00
22426;DHT22;11380;50.822;15.790;2023-07-20T20:40:59;16.10;1.00
22426;DHT22;11380;50.822;15.790;2023-07-20T20:46:07;16.20;1.00
22426;DHT22;11380;50.822;15.790;2023-07-20T20:51:15;16.00;1.00
22426;DHT22;11380;50.822;15.790;2023-07-20T20:56:25;16.00;1.00
22426;DHT22;11380;50.822;15.790;2023-07-20T21:01:33;15.90;1.00
22426;DHT22;11380;50.822;15.790;2023-07-20T21:06:41;15.80;1.00
22426;DHT22;11380;50.822;15.790;2023-07-20T21:11:48;15.80;1.00
22426;DHT22;11380;50.822;15.790;2023-07-20T21:16:54;15.70;1.00
22426;DHT22;11380;50.822;15.790;2023-07-20T21:22:01;15.70;1.00
22426;DHT22;11380;50.822;15.790;2023-07-20T21:27:08;15.70;1.00
22426;DHT22;11380;50.822;15.790;2023-07-20T21:32:24;15.80;1.00
22426;DHT22;11380;50.822;15.790;2023-07-20T21:37:31;15.80;1.00
22426;DHT22;11380;50.822;15.790;2023-07-20T21:42:39;15.80;1.00
22426;DHT22;11380;50.822;15.790;2023-07-20T21:47:47;16.20;1.00
22426;DHT22;11380;50.822;15.790;2023-07-20T21:52:53;16.30;1.00
22426;DHT22;11380;50.822;15.790;2023-07-20T21:58:00;16.20;1.00
22426;DHT22;11380;50.822;15.790;2023-07-20T22:03:07;16.20;1.00
22426;DHT22;11380;50.822;15.790;2023-07-20T22:08:16;16.20;1.00
22426;DHT22;11380;50.822;15.790;2023-07-20T22:13:23;16.40;1.00
22426;DHT22;11380;50.822;15.790;2023-07-20T22:18:31;16.30;1.00
22426;DHT22;11380;50.822;15.790;2023-07-20T22:23:40;16.40;1.00
22426;DHT22;11380;50.822;15.790;2023-07-20T22:28:46;16.60;1.00
22426;DHT22;11380;50.822;15.790;2023-07-20T22:33:54;16.30;1.00
22426;DHT22;11380;50.822;15.790;2023-07-20T22:39:01;16.40;1.00
22426;DHT22;11380;50.822;15.790;2023-07-20T22:44:09;16.20;1.00
22426;DHT22;11380;50.822;15.790;2023-07-20T22:49:17;16.30;1.00
22426;DHT22;11380;50.822;15.790;2023-07-20T22:54:25;16.10;1.00
22426;DHT22;11380;50.822;15.790;2023-07-20T22:59:34;15.80;1.00
22426;DHT22;11380;50.822;15.790;2023-07-20T23:04:41;16.00;1.00
22426;DHT22;11380;50.822;15.790;2023-07-20T23:09:48;16.00;1.00
22426;DHT22;11380;50.822;15.790;2023-07-20T23:14:55;16.10;1.00
22426;DHT22;11380;50.822;15.790;2023-07-20T23:20:03;15.90;1.00
22426;DHT22;11380;50.822;15.790;2023-07-20T23:25:12;15.60;1.00
22426;DHT22;11380;50.822;15.790;2023-07-20T23:30:19;15.20;1.00
22426;DHT22;11380;50.822;15.790;2023-07-20T23:35:26;15.30;1.00
22426;DHT22;11380;50.822;15.790;2023-07-20T23:40:33;15.30;1.00
22426;DHT22;11380;50.822;15.790;2023-07-20T23:45:41;15.40;1.00
22426;DHT22;11380;50.822;15.790;2023-07-20T23:50:48;15.30;1.00
22426;DHT22;11380;50.822;15.790;2023-07-20T23:55:54;15.40;1.00
